createdAt,value
2018-07-14T00:01:32.036Z,16.10
2018-07-14T00:03:59.566Z,15.90
2018-07-14T00:08:54.139Z,15.80
2018-07-14T00:11:21.942Z,15.70
2018-07-14T00:13:49.332Z,15.80
2018-07-14T00:16:16.527Z,15.70
2018-07-14T00:18:44.033Z,15.90
2018-07-14T00:21:11.225Z,15.70
2018-07-14T00:23:38.516Z,15.50
2018-07-14T00:26:05.766Z,15.50
2018-07-14T00:28:33.579Z,15.50
2018-07-14T00:31:00.754Z,15.50
2018-07-14T00:33:28.608Z,15.40
2018-07-14T00:38:22.849Z,15.40
2018-07-14T00:40:50.295Z,15.30
2018-07-14T00:43:17.438Z,15.30
2018-07-14T00:45:44.743Z,15.40
2018-07-14T00:48:12.045Z,15.50
2018-07-14T00:53:06.780Z,15.30
2018-07-14T00:55:34.301Z,15.40
2018-07-14T00:58:01.441Z,15.40
2018-07-14T01:00:28.568Z,15.40
2018-07-14T01:02:55.883Z,15.40
2018-07-14T01:05:23.041Z,15.40
2018-07-14T01:07:50.299Z,15.30
2018-07-14T01:10:17.467Z,15.10
2018-07-14T01:12:44.622Z,15.30
2018-07-14T01:15:11.864Z,15.40
2018-07-14T01:17:47.537Z,15.40
2018-07-14T01:20:14.714Z,15.40
2018-07-14T01:22:41.793Z,15.40
2018-07-14T01:25:09.020Z,15.20
2018-07-14T01:30:03.195Z,15.40
2018-07-14T01:32:30.640Z,15.50
2018-07-14T01:37:24.682Z,15.40
2018-07-14T01:39:51.901Z,15.40
2018-07-14T01:42:19.027Z,15.40
2018-07-14T01:44:46.121Z,15.60
2018-07-14T01:47:13.280Z,15.40
2018-07-14T01:49:40.433Z,15.40
2018-07-14T01:52:07.546Z,15.30
2018-07-14T01:54:34.748Z,15.20
2018-07-14T01:57:01.907Z,15.30
2018-07-14T02:01:56.104Z,15.30
2018-07-14T02:06:50.434Z,15.40
2018-07-14T02:09:17.864Z,15.60
2018-07-14T02:11:45.007Z,15.70
2018-07-14T02:14:12.361Z,15.60
2018-07-14T02:16:39.475Z,15.70
2018-07-14T02:21:33.556Z,15.60
2018-07-14T02:24:00.731Z,15.70
2018-07-14T02:26:27.905Z,15.50
2018-07-14T02:28:55.102Z,15.80
2018-07-14T02:31:30.172Z,15.80
2018-07-14T02:34:03.338Z,15.80
2018-07-14T02:41:24.593Z,15.80
2018-07-14T02:43:52.095Z,15.60
2018-07-14T02:46:19.196Z,15.80
2018-07-14T02:48:46.283Z,15.90
2018-07-14T02:51:13.470Z,15.80
2018-07-14T02:53:40.547Z,15.50
2018-07-14T02:56:14.318Z,15.60
2018-07-14T02:58:41.421Z,15.60
2018-07-14T03:03:42.428Z,15.60
2018-07-14T03:06:09.580Z,15.50
2018-07-14T03:08:36.706Z,15.40
2018-07-14T03:11:03.858Z,15.50
2018-07-14T03:13:30.980Z,15.40
2018-07-14T03:15:58.109Z,15.40
2018-07-14T03:18:25.553Z,15.50
2018-07-14T03:20:52.649Z,15.50
2018-07-14T03:25:47.843Z,15.50
2018-07-14T03:28:14.963Z,15.50
2018-07-14T03:30:42.078Z,15.50
2018-07-14T03:33:09.260Z,15.50
2018-07-14T03:35:36.375Z,15.50
2018-07-14T03:38:03.529Z,15.30
2018-07-14T03:42:57.703Z,15.30
2018-07-14T03:45:24.807Z,15.30
2018-07-14T03:47:51.929Z,15.40
2018-07-14T03:50:19.040Z,15.50
2018-07-14T03:52:46.204Z,15.40
2018-07-14T03:55:13.617Z,15.30
2018-07-14T03:57:40.727Z,15.40
2018-07-14T04:00:07.843Z,15.30
2018-07-14T04:02:34.922Z,15.50
2018-07-14T04:05:02.096Z,15.30
2018-07-14T04:07:29.231Z,15.40
2018-07-14T04:09:56.363Z,15.50
2018-07-14T04:12:23.482Z,15.60
2018-07-14T04:14:50.593Z,15.50
2018-07-14T04:17:17.673Z,15.70
2018-07-14T04:19:44.813Z,15.70
2018-07-14T04:24:38.968Z,15.80
2018-07-14T04:27:06.087Z,15.70
2018-07-14T04:29:33.255Z,15.80
2018-07-14T04:34:27.762Z,15.70
2018-07-14T04:36:55.346Z,15.80
2018-07-14T04:39:22.471Z,15.80
2018-07-14T04:41:49.666Z,15.80
2018-07-14T04:49:10.877Z,15.70
2018-07-14T04:51:38.022Z,15.70
2018-07-14T04:54:05.227Z,15.70
2018-07-14T04:59:00.042Z,15.80
2018-07-14T05:01:27.256Z,15.80
2018-07-14T05:03:54.437Z,15.90
2018-07-14T05:06:21.639Z,15.90
2018-07-14T05:08:49.024Z,15.80
2018-07-14T05:11:16.170Z,15.90
2018-07-14T05:13:43.261Z,15.90
2018-07-14T05:16:10.469Z,15.90
2018-07-14T05:18:37.549Z,16.20
2018-07-14T05:21:04.802Z,16.20
2018-07-14T05:23:31.901Z,15.80
2018-07-14T05:28:26.069Z,15.90
2018-07-14T05:30:53.230Z,16.10
2018-07-14T05:33:20.310Z,16.10
2018-07-14T05:35:47.527Z,16.20
2018-07-14T05:38:14.653Z,16.30
2018-07-14T05:40:41.804Z,16.40
2018-07-14T05:43:08.940Z,16.30
2018-07-14T05:45:36.336Z,16.40
2018-07-14T05:50:30.491Z,16.40
2018-07-14T05:52:57.649Z,16.40
2018-07-14T05:57:51.854Z,16.70
2018-07-14T06:00:19.068Z,16.60
2018-07-14T06:02:46.200Z,16.90
2018-07-14T06:05:13.398Z,16.90
2018-07-14T06:07:40.608Z,16.80
2018-07-14T06:12:34.650Z,16.70
2018-07-14T06:15:01.788Z,16.60
2018-07-14T06:17:28.906Z,16.90
2018-07-14T06:19:56.043Z,17.00
2018-07-14T06:22:23.218Z,16.80
2018-07-14T06:24:50.355Z,17.00
2018-07-14T06:27:17.521Z,17.00
2018-07-14T06:29:44.651Z,17.00
2018-07-14T06:42:00.199Z,17.20
2018-07-14T06:46:54.295Z,17.20
2018-07-14T06:49:21.441Z,17.00
2018-07-14T06:51:48.529Z,16.80
2018-07-14T06:54:15.579Z,16.80
2018-07-14T06:56:42.678Z,16.80
2018-07-14T07:04:03.997Z,17.00
2018-07-14T07:06:31.434Z,16.80
2018-07-14T07:08:58.634Z,17.00
2018-07-14T07:16:19.876Z,17.00
2018-07-14T07:18:47.275Z,17.10
2018-07-14T07:23:41.426Z,17.40
2018-07-14T07:26:08.506Z,17.50
2018-07-14T07:31:02.830Z,17.90
2018-07-14T07:33:29.965Z,17.70
2018-07-14T07:35:57.090Z,17.50
2018-07-14T07:43:18.272Z,17.90
2018-07-14T07:45:45.367Z,17.90
2018-07-14T07:48:12.441Z,17.90
2018-07-14T07:50:39.580Z,18.00
2018-07-14T07:53:06.722Z,17.70
2018-07-14T07:58:00.785Z,18.30
2018-07-14T08:00:27.988Z,18.10
2018-07-14T08:02:55.129Z,18.10
2018-07-14T08:07:49.560Z,17.90
2018-07-14T08:10:16.844Z,17.90
2018-07-14T08:12:44.023Z,18.10
2018-07-14T08:17:38.159Z,18.20
2018-07-14T08:29:53.342Z,18.10
2018-07-14T08:32:20.511Z,17.80
2018-07-14T08:37:14.797Z,18.00
2018-07-14T08:44:36.829Z,17.80
2018-07-14T08:49:31.358Z,17.80
2018-07-14T08:51:58.690Z,18.10
2018-07-14T09:01:48.243Z,18.60
2018-07-14T09:04:16.131Z,18.80
2018-07-14T09:06:43.932Z,18.60
2018-07-14T09:09:12.356Z,18.30
2018-07-14T09:14:07.838Z,18.50
2018-07-14T09:16:35.680Z,18.70
2018-07-14T09:19:03.682Z,18.70
2018-07-14T09:21:31.565Z,18.70
2018-07-14T09:23:59.366Z,18.90
2018-07-14T09:26:27.320Z,18.70
2018-07-14T09:33:50.714Z,19.00
2018-07-14T09:36:18.518Z,19.00
2018-07-14T09:38:46.451Z,18.80
2018-07-14T09:43:42.527Z,18.70
2018-07-14T09:46:11.876Z,18.70
2018-07-14T09:51:07.694Z,18.70
2018-07-14T09:56:03.310Z,18.60
2018-07-14T10:06:01.013Z,19.00
2018-07-14T10:08:29.401Z,18.90
2018-07-14T10:18:20.523Z,18.70
2018-07-14T10:25:43.567Z,18.40
2018-07-14T10:33:06.411Z,18.80
2018-07-14T10:35:34.170Z,19.00
2018-07-14T10:40:29.685Z,19.60
2018-07-14T10:47:53.083Z,19.20
2018-07-14T10:50:20.857Z,19.70
2018-07-14T10:52:48.694Z,19.90
2018-07-14T10:55:16.532Z,19.80
2018-07-14T10:57:44.383Z,19.90
2018-07-14T11:02:39.994Z,19.60
2018-07-14T11:05:08.193Z,19.90
2018-07-14T11:12:33.569Z,19.30
2018-07-14T11:15:01.399Z,19.40
2018-07-14T11:17:29.282Z,19.40
2018-07-14T11:19:57.195Z,19.40
2018-07-14T11:22:25.064Z,19.50
2018-07-14T11:27:20.847Z,19.10
2018-07-14T11:29:48.828Z,19.10
2018-07-14T11:32:16.659Z,19.20
2018-07-14T11:34:44.639Z,19.10
2018-07-14T11:37:12.969Z,19.00
2018-07-14T11:39:41.527Z,18.80
2018-07-14T11:49:32.447Z,18.80
2018-07-14T11:52:00.632Z,18.40
2018-07-14T11:59:24.375Z,18.50
2018-07-14T12:04:20.092Z,18.20
2018-07-14T12:09:15.409Z,18.20
2018-07-14T12:11:43.209Z,18.30
2018-07-14T12:14:11.299Z,18.40
2018-07-14T12:19:09.771Z,18.30
2018-07-14T12:21:37.542Z,18.10
2018-07-14T12:24:05.492Z,18.20
2018-07-14T12:26:33.249Z,18.60
2018-07-14T12:29:00.946Z,18.70
2018-07-14T12:33:56.365Z,19.10
2018-07-14T12:41:19.646Z,19.10
2018-07-14T12:43:47.567Z,19.30
2018-07-14T12:48:43.021Z,19.90
2018-07-14T12:51:10.887Z,19.70
2018-07-14T12:56:06.605Z,19.90
2018-07-14T13:08:24.960Z,19.80
2018-07-14T13:10:52.781Z,19.90
2018-07-14T13:15:48.327Z,20.50
2018-07-14T13:18:16.121Z,20.80
2018-07-14T13:25:39.228Z,20.80
2018-07-14T13:30:34.558Z,20.60
2018-07-14T13:35:29.978Z,21.40
2018-07-14T13:37:57.807Z,21.40
2018-07-14T13:40:25.570Z,20.70
2018-07-14T13:45:21.062Z,20.20
2018-07-14T13:52:44.267Z,19.40
2018-07-14T13:55:12.146Z,19.20
2018-07-14T13:57:40.095Z,19.30
2018-07-14T14:02:36.558Z,19.10
2018-07-14T14:05:04.719Z,18.50
2018-07-14T14:07:32.714Z,19.00
2018-07-14T14:19:51.789Z,19.00
2018-07-14T14:27:15.003Z,19.60
2018-07-14T14:29:42.768Z,20.20
2018-07-14T14:34:38.315Z,21.20
2018-07-14T14:37:06.502Z,20.90
2018-07-14T14:42:02.122Z,20.50
2018-07-14T14:49:25.834Z,20.20
2018-07-14T14:56:48.908Z,20.00
2018-07-14T15:18:59.219Z,19.40
2018-07-14T15:21:27.157Z,19.00
2018-07-14T15:23:55.514Z,19.60
2018-07-14T15:26:24.562Z,21.00
2018-07-14T15:28:51.860Z,22.20
2018-07-14T15:38:43.102Z,21.90
2018-07-14T15:43:38.643Z,21.50
2018-07-14T15:48:34.102Z,21.40
2018-07-14T15:53:29.633Z,20.60
2018-07-14T15:55:57.527Z,21.20
2018-07-14T16:08:16.034Z,22.10
2018-07-14T16:13:12.919Z,22.20
2018-07-14T16:18:08.543Z,23.20
2018-07-14T16:20:36.376Z,23.70
2018-07-14T16:23:03.797Z,23.60
2018-07-14T16:25:30.956Z,23.20
2018-07-14T16:27:58.084Z,23.60
2018-07-14T16:32:52.232Z,24.50
2018-07-14T16:40:13.466Z,26.10
2018-07-14T16:42:40.651Z,26.40
2018-07-14T16:45:07.746Z,26.40
2018-07-14T16:47:35.066Z,26.20
2018-07-14T16:52:29.214Z,26.10
2018-07-14T16:54:56.329Z,26.50
2018-07-14T16:59:50.516Z,24.90
2018-07-14T17:02:17.911Z,23.90
2018-07-14T17:09:39.678Z,24.40
2018-07-14T17:12:06.737Z,25.10
2018-07-14T17:21:54.916Z,24.10
2018-07-14T17:29:16.230Z,24.60
2018-07-14T17:34:10.444Z,24.80
2018-07-14T17:43:59.384Z,24.00
2018-07-14T17:46:26.573Z,22.90
2018-07-14T17:48:53.778Z,22.00
2018-07-14T17:53:47.984Z,20.40
2018-07-14T17:56:15.170Z,20.00
2018-07-14T17:58:42.370Z,19.90
2018-07-14T18:01:09.604Z,19.90
2018-07-14T18:03:36.823Z,21.00
2018-07-14T18:06:04.003Z,22.00
2018-07-14T18:10:58.250Z,23.20
2018-07-14T18:13:25.475Z,23.10
2018-07-14T18:18:19.985Z,22.50
2018-07-14T18:25:41.136Z,20.60
2018-07-14T18:28:08.240Z,19.70
2018-07-14T18:33:02.375Z,20.00
2018-07-14T18:35:29.477Z,20.00
2018-07-14T18:37:56.597Z,20.40
2018-07-14T18:40:23.931Z,20.10
2018-07-14T18:45:18.031Z,20.10
2018-07-14T18:47:45.251Z,20.50
2018-07-14T18:50:12.309Z,20.80
2018-07-14T18:52:39.498Z,21.10
2018-07-14T18:57:33.592Z,21.30
2018-07-14T19:00:00.694Z,20.50
2018-07-14T19:04:54.731Z,20.70
2018-07-14T19:09:48.956Z,19.80
2018-07-14T19:14:43.097Z,19.20
2018-07-14T19:24:31.338Z,17.50
2018-07-14T19:26:58.467Z,17.30
2018-07-14T19:29:25.567Z,17.40
2018-07-14T19:31:52.718Z,17.00
2018-07-14T19:34:19.826Z,16.80
2018-07-14T19:36:47.811Z,16.50
2018-07-14T19:39:14.935Z,16.50
2018-07-14T19:41:42.091Z,16.40
2018-07-14T19:44:09.248Z,16.30
2018-07-14T19:46:36.395Z,16.20
2018-07-14T19:49:03.516Z,16.10
2018-07-14T19:58:51.719Z,16.30
2018-07-14T20:01:18.812Z,15.80
2018-07-14T20:03:45.913Z,15.70
2018-07-14T20:06:13.031Z,15.30
2018-07-14T20:13:34.817Z,15.50
2018-07-14T20:16:01.935Z,15.50
2018-07-14T20:20:56.152Z,15.30
2018-07-14T20:28:17.466Z,15.20
2018-07-14T20:33:11.546Z,15.10
2018-07-14T20:38:05.766Z,15.40
2018-07-14T20:40:32.944Z,15.10
2018-07-14T20:45:27.071Z,15.00
2018-07-14T20:47:54.203Z,15.10
2018-07-14T20:52:48.398Z,14.90
2018-07-14T20:57:42.763Z,14.60
2018-07-14T21:00:09.984Z,14.80
2018-07-14T21:02:38.002Z,14.80
2018-07-14T21:05:05.193Z,14.90
2018-07-14T21:07:32.385Z,14.80
2018-07-14T21:09:59.593Z,14.80
2018-07-14T21:14:53.681Z,14.70
2018-07-14T21:19:48.310Z,14.70
2018-07-14T21:22:15.410Z,14.80
2018-07-14T21:24:42.595Z,14.70
2018-07-14T21:27:10.034Z,14.70
2018-07-14T21:29:37.174Z,14.60
2018-07-14T21:32:04.327Z,14.70
2018-07-14T21:34:31.494Z,14.80
2018-07-14T21:36:58.601Z,14.50
2018-07-14T21:39:25.655Z,14.40
2018-07-14T21:51:40.775Z,14.10
2018-07-14T21:54:07.872Z,14.20
2018-07-14T21:59:02.188Z,14.20
2018-07-14T22:01:30.520Z,14.10
2018-07-14T22:03:57.962Z,14.60
2018-07-14T22:08:52.062Z,14.10
2018-07-14T22:23:35.738Z,14.00
2018-07-14T22:26:03.029Z,14.30
2018-07-14T22:28:30.486Z,14.10
2018-07-14T22:30:59.076Z,14.10
2018-07-14T22:33:26.543Z,14.10
2018-07-14T22:35:53.658Z,14.00
2018-07-14T22:38:21.024Z,14.30
2018-07-14T22:40:48.929Z,14.10
2018-07-14T22:43:16.270Z,14.00
2018-07-14T22:45:43.749Z,14.10
2018-07-14T22:48:11.786Z,14.00
2018-07-14T22:50:39.684Z,14.00
2018-07-14T22:53:06.922Z,14.00
2018-07-14T22:55:34.041Z,13.80
2018-07-14T22:58:01.279Z,13.90
2018-07-14T23:00:28.598Z,13.90
2018-07-14T23:02:55.796Z,14.00
2018-07-14T23:05:22.981Z,13.80
2018-07-14T23:07:51.209Z,14.00
2018-07-14T23:10:18.671Z,13.90
2018-07-14T23:12:46.717Z,13.80
2018-07-14T23:15:13.936Z,14.10
2018-07-14T23:17:41.878Z,13.80
2018-07-14T23:20:09.619Z,13.80
2018-07-14T23:22:37.308Z,14.00
2018-07-14T23:27:32.012Z,13.70
2018-07-14T23:29:59.479Z,13.60
2018-07-14T23:32:27.089Z,13.60
2018-07-14T23:34:54.207Z,13.60
2018-07-14T23:37:21.362Z,14.00
2018-07-14T23:39:48.457Z,13.50
2018-07-14T23:42:15.519Z,13.80
2018-07-14T23:44:42.631Z,13.80
2018-07-14T23:47:09.724Z,13.70
2018-07-14T23:52:03.801Z,13.60
2018-07-14T23:56:57.891Z,13.50
